Time;durP1;ratioP1;P1;durP2;ratioP2;P2;SDS_P1;SDS_P2;PMS_P1;PMS_P2;Temp;Humidity;BMP_temperature;BMP_pressure;BME280_temperature;BME280_humidity;BME280_pressure;Samples;Min_cycle;Max_cycle;Signal;HPM_P1;HPM_P2
2022/07/07 00:00:58;;;;;;;2.87;1.50;;;;;;;13.09;62.45;96259.94;4993280;28;20290;-77
2022/07/07 00:03:23;;;;;;;4.30;1.33;;;;;;;13.13;62.15;96265.69;5010201;28;20215;-75
2022/07/07 00:05:48;;;;;;;3.77;1.30;;;;;;;12.91;62.62;96259.09;5000843;28;20187;-77
2022/07/07 00:08:14;;;;;;;6.93;1.40;;;;;;;12.90;62.60;96258.25;4995377;28;20195;-77
2022/07/07 00:10:39;;;;;;;2.60;1.77;;;;;;;12.94;62.55;96254.38;5023700;28;20250;-77
2022/07/07 00:13:04;;;;;;;2.10;1.50;;;;;;;12.84;62.95;96250.19;4993950;28;20184;-77
2022/07/07 00:15:30;;;;;;;3.67;2.20;;;;;;;12.99;61.98;96249.56;5024306;28;20653;-76
2022/07/07 00:17:55;;;;;;;4.30;1.67;;;;;;;12.97;62.27;96246.25;5013329;28;20705;-77
2022/07/07 00:20:20;;;;;;;3.23;1.50;;;;;;;12.98;62.10;96252.28;5012853;28;20663;-77
2022/07/07 00:22:46;;;;;;;1.70;1.50;;;;;;;13.12;61.63;96253.59;5010212;28;20191;-77
2022/07/07 00:25:11;;;;;;;2.57;1.70;;;;;;;12.96;62.21;96244.63;5019082;28;20270;-77
2022/07/07 00:27:37;;;;;;;3.33;1.50;;;;;;;12.96;62.07;96243.81;4994008;28;20195;-77
2022/07/07 00:30:03;;;;;;;2.27;1.20;;;;;;;13.04;61.91;96239.50;4996994;28;20226;-76
2022/07/07 00:32:28;;;;;;;2.60;1.40;;;;;;;13.13;61.85;96237.00;5002675;28;20230;-76
2022/07/07 00:34:53;;;;;;;3.90;1.70;;;;;;;13.26;61.40;96240.94;5012809;28;20782;-77
2022/07/07 00:37:18;;;;;;;1.80;1.50;;;;;;;13.30;60.69;96237.06;4996911;28;20221;-76
2022/07/07 00:39:44;;;;;;;4.53;2.00;;;;;;;13.29;60.78;96230.19;5014586;28;20190;-77
2022/07/07 00:42:14;;;;;;;7.43;1.60;;;;;;;13.30;60.72;96237.06;4996764;28;20675;-77
2022/07/07 00:44:40;;;;;;;2.97;1.30;;;;;;;13.38;60.29;96223.28;4995956;28;20206;-77
2022/07/07 00:47:05;;;;;;;2.37;1.27;;;;;;;13.50;60.21;96229.09;5013195;28;20661;-77
2022/07/07 00:49:32;;;;;;;2.17;1.37;;;;;;;13.48;60.32;96228.41;5010896;28;20681;-77
2022/07/07 00:51:57;;;;;;;5.00;1.30;;;;;;;13.58;59.93;96214.31;5009341;28;20207;-77
2022/07/07 00:54:23;;;;;;;4.53;1.30;;;;;;;13.59;60.32;96215.13;5012423;28;20182;-77
2022/07/07 00:56:48;;;;;;;5.33;1.33;;;;;;;13.51;59.84;96218.50;5012611;28;20202;-77
2022/07/07 00:59:13;;;;;;;3.10;1.47;;;;;;;13.67;59.53;96220.44;4993523;28;20191;-77
2022/07/07 01:01:40;;;;;;;4.27;1.20;;;;;;;13.72;58.93;96212.16;5018928;28;20242;-77
2022/07/07 01:04:08;;;;;;;4.13;1.33;;;;;;;13.69;59.27;96210.66;5009213;28;20258;-76
2022/07/07 01:06:33;;;;;;;3.80;1.47;;;;;;;13.70;58.58;96209.72;4987284;28;20175;-77
2022/07/07 01:08:58;;;;;;;3.57;1.40;;;;;;;13.71;58.78;96203.53;4996145;28;20183;-77
2022/07/07 01:11:24;;;;;;;5.07;1.50;;;;;;;13.75;59.11;96207.44;5012191;28;20302;-77
2022/07/07 01:13:49;;;;;;;2.70;1.23;;;;;;;13.74;59.09;96208.44;5011922;28;20225;-77
2022/07/07 01:16:14;;;;;;;4.33;1.40;;;;;;;13.70;59.29;96209.72;4996501;28;20703;-76
2022/07/07 01:18:41;;;;;;;4.07;1.57;;;;;;;13.70;59.01;96207.09;5013480;28;20667;-76
2022/07/07 01:21:09;;;;;;;2.10;1.20;;;;;;;13.73;59.20;96203.34;5011944;28;20682;-77
2022/07/07 01:23:34;;;;;;;2.47;1.40;;;;;;;13.77;59.23;96202.91;5012209;28;20183;-77
2022/07/07 01:25:59;;;;;;;3.47;1.50;;;;;;;13.74;59.45;96202.38;5012128;28;20175;-76
2022/07/07 01:28:25;;;;;;;4.13;1.60;;;;;;;13.76;59.06;96201.25;5012039;28;20634;-76
2022/07/07 01:30:50;;;;;;;3.83;1.37;;;;;;;13.63;59.67;96200.84;5012275;28;20211;-75
2022/07/07 01:33:16;;;;;;;2.90;1.50;;;;;;;13.49;60.73;96185.69;5013831;28;20186;-77
2022/07/07 01:35:41;;;;;;;4.50;1.80;;;;;;;13.32;61.27;96182.94;5011453;28;20312;-77
2022/07/07 01:38:06;;;;;;;2.00;1.23;;;;;;;13.40;60.72;96181.38;5008828;28;20195;-77
2022/07/07 01:40:32;;;;;;;2.40;1.40;;;;;;;13.46;60.50;96180.78;5008860;28;20211;-77
2022/07/07 01:42:57;;;;;;;1.30;1.20;;;;;;;13.30;60.56;96173.63;5008451;28;20605;-76
2022/07/07 01:45:22;;;;;;;1.73;1.40;;;;;;;13.49;59.95;96175.25;5011319;28;20206;-77
2022/07/07 01:47:48;;;;;;;2.67;1.37;;;;;;;13.31;60.35;96170.88;4992691;28;20184;-76
2022/07/07 01:50:14;;;;;;;4.43;1.50;;;;;;;13.20;61.30;96178.09;4993937;28;20707;-77
2022/07/07 01:52:39;;;;;;;3.10;1.40;;;;;;;13.18;61.31;96167.78;5005973;28;20202;-76
2022/07/07 01:55:05;;;;;;;1.43;1.10;;;;;;;13.07;61.31;96165.38;5010696;28;20179;-77
2022/07/07 01:57:30;;;;;;;1.40;1.30;;;;;;;13.11;61.24;96168.53;4990706;28;20278;-77
2022/07/07 01:59:56;;;;;;;3.27;1.47;;;;;;;13.03;61.58;96169.25;4991390;28;20176;-77
2022/07/07 02:02:21;;;;;;;3.73;1.30;;;;;;;13.15;61.33;96165.47;5006334;28;20637;-77
2022/07/07 02:04:46;;;;;;;3.27;1.40;;;;;;;13.07;61.83;96167.16;5010506;28;20187;-77
2022/07/07 02:07:12;;;;;;;1.53;1.23;;;;;;;12.87;62.32;96174.31;4994219;28;20221;-77
2022/07/07 02:09:37;;;;;;;3.07;2.27;;;;;;;12.74;62.46;96167.66;5011074;28;20183;-74
2022/07/07 02:12:03;;;;;;;4.17;1.63;;;;;;;12.86;62.13;96175.28;5010638;28;20222;-77
2022/07/07 02:14:28;;;;;;;1.73;1.17;;;;;;;12.96;61.92;96171.63;4993974;28;20598;-78
2022/07/07 02:16:54;;;;;;;1.67;1.53;;;;;;;12.94;61.90;96173.56;5012182;28;20210;-77
2022/07/07 02:19:20;;;;;;;1.90;1.60;;;;;;;12.94;62.13;96170.16;4995202;28;20198;-77
2022/07/07 02:21:45;;;;;;;4.60;1.97;;;;;;;12.88;62.21;96175.94;5012710;28;20211;-77
2022/07/07 02:24:10;;;;;;;2.93;1.43;;;;;;;12.97;61.57;96185.47;4994287;28;20187;-77
2022/07/07 02:26:36;;;;;;;1.73;1.50;;;;;;;12.85;61.63;96186.66;4995355;28;20191;-76
2022/07/07 02:29:02;;;;;;;2.70;1.40;;;;;;;13.08;60.51;96182.69;4995355;28;20206;-76
2022/07/07 02:31:27;;;;;;;2.27;1.50;;;;;;;13.07;60.47;96175.81;4994744;28;20337;-77
2022/07/07 02:33:52;;;;;;;3.67;1.17;;;;;;;13.00;60.76;96172.19;4994178;28;20183;-77
2022/07/07 02:36:19;;;;;;;2.63;1.47;;;;;;;12.88;61.63;96174.16;5012893;28;20564;-77
2022/07/07 02:38:45;;;;;;;4.43;1.40;;;;;;;13.10;60.67;96170.31;4996248;28;20186;-78
2022/07/07 02:41:11;;;;;;;4.10;1.63;;;;;;;13.07;61.22;96170.59;5012517;28;20203;-78
2022/07/07 02:43:36;;;;;;;3.43;1.57;;;;;;;13.06;60.79;96166.34;4995391;28;20187;-78
2022/07/07 02:46:03;;;;;;;3.70;1.33;;;;;;;13.00;61.09;96166.97;5012077;28;20171;-77
2022/07/07 02:48:28;;;;;;;3.20;1.10;;;;;;;13.00;60.97;96159.97;5011491;28;20201;-77
2022/07/07 02:50:54;;;;;;;1.30;1.10;;;;;;;12.96;61.21;96160.38;4994933;28;20610;-76
2022/07/07 02:53:20;;;;;;;4.93;1.50;;;;;;;12.98;61.03;96158.44;5012124;28;20187;-77
2022/07/07 02:55:45;;;;;;;4.40;1.50;;;;;;;12.87;61.51;96163.88;5010119;28;20195;-76
2022/07/07 02:58:12;;;;;;;1.40;1.30;;;;;;;12.90;61.02;96168.81;5011218;28;20229;-76
2022/07/07 03:00:37;;;;;;;1.73;1.20;;;;;;;12.92;61.27;96165.09;5010756;28;20543;-78
2022/07/07 03:03:04;;;;;;;5.80;1.43;;;;;;;12.90;61.22;96153.19;4992303;28;20179;-76
2022/07/07 03:05:30;;;;;;;5.17;1.30;;;;;;;12.87;61.43;96146.44;4975532;28;20195;-78
2022/07/07 03:07:55;;;;;;;2.90;1.10;;;;;;;12.90;61.35;96142.75;5003902;28;20563;-77
2022/07/07 03:10:21;;;;;;;2.43;1.60;;;;;;;12.89;61.32;96143.69;5011838;28;20214;-78
2022/07/07 03:12:46;;;;;;;3.57;1.37;;;;;;;12.83;61.82;96146.91;4992042;28;20188;-78
2022/07/07 03:15:12;;;;;;;2.47;1.20;;;;;;;12.88;61.74;96145.47;4992862;28;20255;-77
2022/07/07 03:17:41;;;;;;;3.57;1.40;;;;;;;12.94;61.02;96139.69;5000114;28;20261;-78
2022/07/07 03:20:07;;;;;;;1.53;1.27;;;;;;;13.08;60.74;96140.97;4992344;28;20663;-78
2022/07/07 03:22:32;;;;;;;2.70;1.30;;;;;;;13.10;60.59;96141.63;4992863;28;20191;-77
2022/07/07 03:24:58;;;;;;;3.43;1.30;;;;;;;13.17;60.18;96142.69;5003947;28;20187;-77
2022/07/07 03:27:23;;;;;;;5.43;1.30;;;;;;;13.25;59.63;96147.16;4995558;28;20233;-77
2022/07/07 03:29:50;;;;;;;5.90;1.60;;;;;;;13.33;59.35;96148.06;4995285;28;20206;-78
2022/07/07 03:32:15;;;;;;;2.63;1.30;;;;;;;13.33;59.21;96144.63;5012552;28;20210;-78
2022/07/07 03:34:40;;;;;;;3.53;1.40;;;;;;;13.30;59.64;96143.16;5011505;28;20553;-77
2022/07/07 03:37:06;;;;;;;1.90;1.10;;;;;;;13.42;59.01;96141.13;4994782;28;20226;-77
2022/07/07 03:39:31;;;;;;;4.53;1.20;;;;;;;13.45;59.10;96132.19;4994771;28;20187;-78
2022/07/07 03:41:56;;;;;;;1.63;1.00;;;;;;;13.40;59.23;96142.25;5011703;28;20199;-78
2022/07/07 03:44:21;;;;;;;1.37;1.10;;;;;;;13.33;59.29;96131.59;5015616;28;20191;-77
2022/07/07 03:46:47;;;;;;;2.93;1.40;;;;;;;13.37;59.27;96134.72;5015352;28;20196;-78
2022/07/07 03:49:12;;;;;;;4.37;1.30;;;;;;;13.42;58.99;96119.44;5015642;28;20659;-77
2022/07/07 03:51:37;;;;;;;4.63;1.40;;;;;;;13.44;59.17;96125.34;5016632;28;20202;-77
2022/07/07 03:54:03;;;;;;;2.20;1.20;;;;;;;13.50;58.61;96115.09;4996190;28;20686;-77
2022/07/07 03:56:28;;;;;;;2.40;1.50;;;;;;;13.50;58.64;96122.09;5012486;28;20219;-77
2022/07/07 03:58:54;;;;;;;4.13;1.23;;;;;;;13.54;58.57;96124.28;5007625;28;20179;-77
2022/07/07 04:01:19;;;;;;;1.53;1.30;;;;;;;13.58;58.70;96127.38;5011579;28;20258;-78
2022/07/07 04:03:44;;;;;;;1.63;1.07;;;;;;;13.62;58.48;96120.09;5011699;28;20189;-78
2022/07/07 04:06:09;;;;;;;3.03;1.33;;;;;;;13.72;57.87;96123.44;5013956;28;20199;-77
2022/07/07 04:08:35;;;;;;;5.07;1.30;;;;;;;13.79;57.33;96125.28;5012520;28;20191;-77
2022/07/07 04:11:00;;;;;;;3.90;1.00;;;;;;;13.71;57.68;96135.66;5012592;28;20215;-77
2022/07/07 04:13:25;;;;;;;2.80;1.30;;;;;;;13.75;57.89;96126.53;5012701;28;20226;-78
2022/07/07 04:15:51;;;;;;;3.70;1.60;;;;;;;13.77;57.43;96129.81;5011896;28;20257;-78
2022/07/07 04:18:16;;;;;;;1.57;1.47;;;;;;;13.96;56.96;96122.75;4996426;28;20278;-78
2022/07/07 04:20:42;;;;;;;1.57;1.43;;;;;;;14.07;56.38;96125.09;5012686;28;20209;-78
2022/07/07 04:23:07;;;;;;;2.70;1.10;;;;;;;14.38;55.16;96122.78;5011520;28;20203;-79
2022/07/07 04:25:32;;;;;;;1.90;1.20;;;;;;;14.82;53.98;96128.69;4995912;28;20191;-78
2022/07/07 04:27:57;;;;;;;3.07;1.30;;;;;;;14.61;54.79;96117.88;5013020;28;20666;-79
2022/07/07 04:30:23;;;;;;;2.57;1.40;;;;;;;15.28;52.62;96121.25;5013138;28;20246;-77
2022/07/07 04:32:48;;;;;;;3.80;1.35;;;;;;;17.46;47.11;96117.25;4996888;28;20191;-79
2022/07/07 04:35:14;;;;;;;1.85;1.40;;;;;;;18.52;43.16;96117.06;4995551;28;20225;-79
2022/07/07 04:37:39;;;;;;;1.63;1.13;;;;;;;19.61;40.30;96128.41;4996378;28;20211;-79
2022/07/07 04:40:05;;;;;;;2.83;1.10;;;;;;;20.24;39.15;96125.84;5013950;28;20201;-77
2022/07/07 04:42:30;;;;;;;2.38;1.05;;;;;;;20.43;38.69;96119.91;5031159;28;20611;-80
2022/07/07 04:44:56;;;;;;;1.33;1.02;;;;;;;21.52;36.73;96134.91;4997247;28;20217;-78
2022/07/07 04:47:21;;;;;;;2.05;0.80;;;;;;;21.87;35.66;96127.59;4997254;28;20178;-82
2022/07/07 04:49:47;;;;;;;2.25;1.13;;;;;;;22.62;34.36;96121.00;5013295;28;20187;-80
2022/07/07 04:52:12;;;;;;;2.70;1.10;;;;;;;22.78;34.13;96117.88;5014558;28;20203;-81
2022/07/07 04:54:37;;;;;;;3.92;1.05;;;;;;;23.11;33.57;96119.59;4995151;28;20643;-82
2022/07/07 04:57:03;;;;;;;2.58;1.15;;;;;;;23.84;32.15;96127.88;5014196;28;20257;-82
2022/07/07 04:59:28;;;;;;;1.75;1.27;;;;;;;24.12;31.38;96122.16;5013270;28;20241;-82
2022/07/07 05:01:56;;;;;;;3.28;1.25;;;;;;;24.54;30.25;96122.38;5014199;28;20570;-83
2022/07/07 05:04:22;;;;;;;2.78;0.90;;;;;;;24.52;30.50;96113.81;4996308;28;20190;-83
2022/07/07 05:06:47;;;;;;;4.68;1.40;;;;;;;24.69;30.87;96117.50;4995932;28;20175;-83
2022/07/07 05:09:12;;;;;;;7.22;2.08;;;;;;;24.80;30.22;96115.94;4996474;28;20187;-82
2022/07/07 05:11:38;;;;;;;1.58;1.10;;;;;;;25.27;29.65;96110.88;4994545;28;20208;-82
2022/07/07 05:14:03;;;;;;;1.27;1.10;;;;;;;25.50;29.53;96110.94;5012073;28;20199;-83
2022/07/07 05:16:29;;;;;;;5.05;1.10;;;;;;;26.47;28.21;96116.72;4994154;28;20206;-82
2022/07/07 05:18:55;;;;;;;3.13;1.10;;;;;;;26.30;28.01;96115.78;5013160;28;20175;-83
2022/07/07 05:21:20;;;;;;;1.98;1.00;;;;;;;26.11;28.46;96106.31;4995993;28;20211;-82
2022/07/07 05:23:45;;;;;;;3.85;1.15;;;;;;;27.55;26.86;96115.13;5010962;28;20198;-81
2022/07/07 05:26:11;;;;;;;4.80;1.20;;;;;;;27.06;27.37;96112.13;5011792;28;20187;-83
2022/07/07 05:28:41;;;;;;;2.10;1.10;;;;;;;26.93;27.25;96119.53;5011871;28;20198;-83
2022/07/07 05:31:07;;;;;;;1.50;1.40;;;;;;;27.72;27.28;96115.16;5011608;28;20199;-83
2022/07/07 05:33:32;;;;;;;2.65;1.25;;;;;;;27.29;27.08;96110.38;5012111;28;20258;-83
2022/07/07 05:35:57;;;;;;;4.18;1.00;;;;;;;28.44;26.33;96115.22;5010884;28;20706;-84
2022/07/07 05:38:23;;;;;;;3.08;1.20;;;;;;;26.77;28.08;96105.91;4995399;28;20207;-83
2022/07/07 05:40:48;;;;;;;3.45;1.45;;;;;;;24.46;30.90;96106.72;5013440;28;20218;-83
2022/07/07 05:43:13;;;;;;;1.50;1.10;;;;;;;22.37;34.92;96098.88;5012136;28;20658;-83
2022/07/07 05:45:38;;;;;;;4.88;1.20;;;;;;;21.81;36.68;96104.63;5010982;28;20210;-82
2022/07/07 05:48:04;;;;;;;1.83;1.17;;;;;;;21.30;37.85;96108.66;5011793;28;20190;-82
2022/07/07 05:50:29;;;;;;;4.93;1.40;;;;;;;20.54;39.78;96103.50;4995312;28;20210;-82
2022/07/07 05:52:55;;;;;;;4.18;1.50;;;;;;;19.79;41.08;96106.88;4995257;28;20182;-81
2022/07/07 05:55:20;;;;;;;1.98;1.30;;;;;;;19.71;41.41;96105.19;5011397;28;20535;-82
2022/07/07 05:57:46;;;;;;;4.53;1.50;;;;;;;19.58;42.85;96110.34;4995646;28;20572;-82
2022/07/07 06:00:11;;;;;;;3.35;1.70;;;;;;;20.17;41.70;96114.44;4995022;28;20623;-82
2022/07/07 06:02:37;;;;;;;4.32;1.65;;;;;;;21.28;39.11;96110.66;4995346;28;20213;-82
2022/07/07 06:05:02;;;;;;;3.28;1.20;;;;;;;23.26;35.67;96106.88;5010631;28;20186;-82
2022/07/07 06:07:28;;;;;;;4.55;1.30;;;;;;;23.72;34.20;96117.19;5011430;28;20179;-83
2022/07/07 06:09:53;;;;;;;3.42;1.42;;;;;;;23.46;34.63;96115.50;5011025;28;20183;-82
2022/07/07 06:12:18;;;;;;;1.85;1.40;;;;;;;24.19;32.88;96119.44;5011251;28;20191;-82
2022/07/07 06:14:44;;;;;;;5.18;1.70;;;;;;;23.26;34.36;96112.16;4994756;28;20201;-82
2022/07/07 06:17:10;;;;;;;2.63;1.40;;;;;;;22.66;35.99;96111.59;5011157;28;20211;-82
2022/07/07 06:19:35;;;;;;;5.15;1.63;;;;;;;21.99;37.28;96107.44;4991816;28;20635;-82
2022/07/07 06:22:00;;;;;;;2.30;1.40;;;;;;;21.04;38.92;96109.38;5007761;28;20217;-81
2022/07/07 06:24:26;;;;;;;2.50;1.48;;;;;;;20.59;39.94;96105.56;5012201;28;20647;-81
2022/07/07 06:26:51;;;;;;;6.05;1.52;;;;;;;20.54;40.14;96105.34;5022220;28;20175;-81
2022/07/07 06:29:17;;;;;;;5.03;1.30;;;;;;;20.28;40.87;96095.44;5003933;28;20186;-83
2022/07/07 06:31:42;;;;;;;2.38;1.40;;;;;;;19.89;42.12;96096.81;4997782;28;20200;-82
2022/07/07 06:34:07;;;;;;;2.97;1.40;;;;;;;20.01;42.57;96102.38;4992606;28;20179;-83
2022/07/07 06:36:33;;;;;;;3.45;1.40;;;;;;;20.18;41.76;96098.41;5011427;28;20301;-83
2022/07/07 06:38:58;;;;;;;2.47;1.23;;;;;;;20.70;41.14;96101.56;5012434;28;20179;-82
2022/07/07 06:41:24;;;;;;;4.43;1.27;;;;;;;21.13;39.59;96096.81;4997163;28;20555;-83
2022/07/07 06:43:50;;;;;;;4.60;1.55;;;;;;;21.07;39.91;96102.88;5011115;28;20187;-83
2022/07/07 06:46:15;;;;;;;2.22;1.30;;;;;;;20.76;40.81;96106.03;4996781;28;20608;-83
2022/07/07 06:48:41;;;;;;;4.30;1.40;;;;;;;20.68;40.96;96104.41;5009127;28;20190;-82
2022/07/07 06:51:06;;;;;;;4.35;1.52;;;;;;;20.70;40.84;96102.38;4981378;28;20213;-83
2022/07/07 06:53:31;;;;;;;4.50;1.42;;;;;;;20.76;41.29;96106.88;4993250;28;20211;-84
2022/07/07 06:55:57;;;;;;;3.20;1.35;;;;;;;21.62;39.27;96107.06;4994833;28;20195;-83
2022/07/07 06:58:22;;;;;;;3.33;1.42;;;;;;;23.39;35.79;96100.66;5012412;28;20214;-83
2022/07/07 07:00:47;;;;;;;3.53;1.60;;;;;;;23.83;35.05;96106.91;4995309;28;20222;-84
2022/07/07 07:03:13;;;;;;;4.90;1.60;;;;;;;23.92;35.48;96103.75;5012463;28;20186;-83
2022/07/07 07:05:38;;;;;;;3.80;2.15;;;;;;;23.08;35.54;96114.72;4995536;28;20190;-83
2022/07/07 07:08:04;;;;;;;4.88;1.77;;;;;;;21.76;38.83;96116.63;5011668;28;20218;-83
2022/07/07 07:10:29;;;;;;;5.63;2.10;;;;;;;21.39;40.22;96119.84;4995242;28;20198;-83
2022/07/07 07:12:54;;;;;;;4.75;1.65;;;;;;;20.97;41.10;96118.28;5010583;28;20179;-84
2022/07/07 07:15:19;;;;;;;4.32;1.77;;;;;;;21.16;40.49;96114.91;4994128;28;20198;-83
2022/07/07 07:17:45;;;;;;;2.30;1.80;;;;;;;20.23;42.79;96116.28;5013603;28;20317;-84
2022/07/07 07:20:12;;;;;;;5.45;1.73;;;;;;;20.48;41.94;96108.75;4999679;28;20182;-83
2022/07/07 07:22:38;;;;;;;2.05;1.33;;;;;;;20.72;41.74;96115.34;5015216;28;20207;-82
2022/07/07 07:25:04;;;;;;;4.05;1.40;;;;;;;21.18;41.26;96124.22;5015241;28;20205;-83
2022/07/07 07:27:29;;;;;;;3.42;1.65;;;;;;;21.23;41.37;96130.75;5015530;28;20409;-82
2022/07/07 07:29:54;;;;;;;5.43;1.77;;;;;;;21.08;41.62;96126.44;5015205;28;20183;-84
2022/07/07 07:32:20;;;;;;;4.72;1.80;;;;;;;21.51;40.99;96131.44;4998812;28;20246;-83
2022/07/07 07:34:45;;;;;;;4.47;1.75;;;;;;;20.85;41.93;96136.53;4997710;28;20273;-83
2022/07/07 07:37:10;;;;;;;2.60;1.67;;;;;;;21.03;41.73;96138.63;5014741;28;20211;-83
2022/07/07 07:39:36;;;;;;;4.68;1.92;;;;;;;20.81;42.51;96136.09;4998767;28;20665;-84
2022/07/07 07:42:01;;;;;;;10.13;1.73;;;;;;;20.02;44.10;96139.06;5014794;28;20202;-83
2022/07/07 07:47:10;;;;;;;2.55;1.70;;;;;;;19.35;46.59;96155.31;5015499;28;20274;-84
2022/07/07 07:49:36;;;;;;;4.50;1.92;;;;;;;19.12;47.81;96152.81;4998752;28;20179;-83
2022/07/07 07:52:01;;;;;;;1.70;1.60;;;;;;;19.06;48.00;96155.38;4998817;28;20214;-84
2022/07/07 07:54:26;;;;;;;8.80;1.80;;;;;;;19.07;47.94;96162.25;5014379;28;20639;-84
2022/07/07 07:56:51;;;;;;;6.82;2.15;;;;;;;18.58;49.70;96152.34;4998777;28;20214;-83
2022/07/07 07:59:17;;;;;;;4.60;2.03;;;;;;;18.43;50.20;96159.41;5014507;28;20246;-83
2022/07/07 08:01:42;;;;;;;6.07;2.30;;;;;;;18.38;50.83;96168.66;4998173;28;20203;-83
2022/07/07 08:04:07;;;;;;;4.55;2.13;;;;;;;18.50;50.66;96157.69;4997422;28;20187;-83
2022/07/07 08:06:33;;;;;;;6.57;2.13;;;;;;;18.50;51.23;96165.59;4997813;28;20187;-82
2022/07/07 08:08:58;;;;;;;3.35;2.20;;;;;;;18.66;50.94;96171.50;4998490;28;20186;-83
2022/07/07 08:11:23;;;;;;;3.58;2.50;;;;;;;18.59;51.79;96169.75;4998567;28;20199;-83
2022/07/07 08:13:48;;;;;;;6.72;4.25;;;;;;;18.80;51.53;96166.41;4997483;28;20187;-83
2022/07/07 08:16:14;;;;;;;6.43;4.55;;;;;;;18.78;52.00;96163.94;5014595;28;20202;-83
2022/07/07 08:18:39;;;;;;;4.97;4.07;;;;;;;19.79;49.90;96168.31;5014496;28;20594;-83
2022/07/07 08:21:04;;;;;;;8.80;4.95;;;;;;;20.65;47.34;96158.34;5015055;28;20748;-82
2022/07/07 08:23:30;;;;;;;9.52;6.05;;;;;;;21.08;46.16;96158.13;5013703;28;20215;-83
2022/07/07 08:25:55;;;;;;;7.95;4.60;;;;;;;21.38;45.55;96155.19;5013249;28;20225;-83
2022/07/07 08:28:21;;;;;;;6.20;5.28;;;;;;;20.73;46.37;96153.94;5013161;28;20183;-82
2022/07/07 08:30:46;;;;;;;6.38;5.35;;;;;;;20.37;47.91;96161.00;5013085;28;20789;-81
2022/07/07 08:33:11;;;;;;;7.47;4.80;;;;;;;20.45;47.51;96157.44;5013487;28;20615;-82
2022/07/07 08:35:36;;;;;;;5.32;4.43;;;;;;;19.99;48.83;96155.28;5012260;28;20550;-82
2022/07/07 08:38:02;;;;;;;6.75;3.83;;;;;;;19.97;48.74;96159.94;5013627;28;20235;-82
2022/07/07 08:40:28;;;;;;;6.88;3.70;;;;;;;19.91;49.35;96165.97;5012837;28;20206;-82
2022/07/07 08:42:53;;;;;;;6.72;3.50;;;;;;;19.70;50.18;96176.50;4997385;28;20183;-83
2022/07/07 08:45:19;;;;;;;6.93;3.03;;;;;;;19.72;51.22;96171.88;5011984;28;20190;-81
2022/07/07 08:47:44;;;;;;;4.82;3.35;;;;;;;19.37;54.10;96174.34;4995214;28;20183;-81
2022/07/07 08:50:09;;;;;;;4.70;3.10;;;;;;;18.95;55.65;96175.91;4995560;28;20214;-81
2022/07/07 08:52:34;;;;;;;3.03;2.72;;;;;;;18.53;58.63;96181.00;4995800;28;20187;-82
2022/07/07 08:55:01;;;;;;;5.43;3.08;;;;;;;18.55;60.31;96178.97;5011779;28;20218;-82
2022/07/07 08:57:26;;;;;;;7.88;3.75;;;;;;;18.03;64.45;96169.34;5012508;28;20238;-82
2022/07/07 08:59:56;;;;;;;6.68;3.20;;;;;;;18.39;63.16;96172.13;5012033;28;20214;-81
2022/07/07 09:02:22;;;;;;;5.53;3.47;;;;;;;18.70;62.25;96164.06;5012161;28;20686;-80
2022/07/07 09:04:47;;;;;;;4.50;3.58;;;;;;;18.68;62.48;96166.06;4994370;28;20546;-82
2022/07/07 09:07:13;;;;;;;4.38;3.70;;;;;;;18.56;62.78;96154.34;5012366;28;20201;-82
2022/07/07 09:09:44;;;;;;;7.75;3.80;;;;;;;19.08;60.90;96154.22;5012292;28;20183;-82
2022/07/07 09:12:11;;;;;;;4.07;3.67;;;;;;;18.25;63.55;96144.00;5012164;28;20206;-82
2022/07/07 09:14:44;;;;;;;5.55;3.40;;;;;;;17.92;63.85;96135.59;4995890;28;20190;-82
2022/07/07 09:17:30;;;;;;;7.40;4.88;;;;;;;17.71;64.92;96139.75;4995887;28;20631;-83
2022/07/07 09:20:14;;;;;;;4.28;3.85;;;;;;;17.73;64.64;96143.00;5009956;28;20683;-82
2022/07/07 09:22:42;;;;;;;7.65;3.75;;;;;;;17.83;64.72;96145.38;5010182;28;20552;-82
2022/07/07 09:25:08;;;;;;;5.78;3.38;;;;;;;18.19;63.03;96139.44;4982058;28;20242;-82
2022/07/07 09:27:48;;;;;;;7.25;3.58;;;;;;;18.53;62.65;96144.16;5013006;28;20325;-82
2022/07/07 09:30:13;;;;;;;4.45;3.58;;;;;;;18.67;60.17;96151.28;4996342;28;20176;-83
2022/07/07 09:32:46;;;;;;;5.32;3.22;;;;;;;18.56;60.54;96146.44;5013610;28;20589;-83
2022/07/07 09:38:15;;;;;;;3.08;2.60;;;;;;;19.44;58.07;96154.19;5023424;28;20282;-82
2022/07/07 09:40:49;;;;;;;4.43;2.88;;;;;;;19.78;57.21;96158.75;4996356;28;20619;-82
2022/07/07 09:43:15;;;;;;;7.32;3.10;;;;;;;19.70;56.19;96152.78;5012887;28;20212;-82
2022/07/07 09:45:40;;;;;;;6.60;2.67;;;;;;;19.94;55.99;96149.75;4995636;28;20186;-82
2022/07/07 09:48:10;;;;;;;5.43;2.70;;;;;;;20.11;56.27;96145.03;4995628;28;20184;-82
2022/07/07 09:50:36;;;;;;;4.57;2.65;;;;;;;20.16;57.20;96139.19;4978001;28;20298;-83
2022/07/07 09:53:07;;;;;;;4.80;2.15;;;;;;;20.37;55.69;96145.19;4996168;28;20179;-83
2022/07/07 09:55:33;;;;;;;2.38;2.00;;;;;;;20.68;53.54;96146.63;4996338;28;20183;-82
2022/07/07 09:57:58;;;;;;;3.58;2.15;;;;;;;20.12;54.26;96135.28;5013032;28;20541;-83
2022/07/07 10:00:24;;;;;;;4.70;2.47;;;;;;;20.54;54.04;96140.44;4996209;28;20659;-83
2022/07/07 10:02:51;;;;;;;2.55;2.30;;;;;;;20.64;54.11;96140.09;4993075;28;20192;-83
2022/07/07 10:05:17;;;;;;;3.92;2.25;;;;;;;20.87;52.08;96158.28;5015133;28;20175;-82
2022/07/07 10:07:47;;;;;;;3.83;1.90;;;;;;;20.81;52.55;96149.31;5012988;28;20245;-84
2022/07/07 10:10:12;;;;;;;2.15;1.70;;;;;;;20.76;51.51;96153.53;5012877;28;20178;-83
2022/07/07 10:12:45;;;;;;;2.42;1.80;;;;;;;21.54;50.57;96154.00;5012200;28;20227;-81
2022/07/07 10:15:13;;;;;;;2.63;1.98;;;;;;;21.65;49.71;96148.97;5011782;28;20171;-83
2022/07/07 10:17:40;;;;;;;2.40;1.60;;;;;;;22.04;48.70;96152.63;4994752;28;20203;-82
2022/07/07 10:20:06;;;;;;;2.65;1.67;;;;;;;22.02;48.86;96150.19;4993702;28;20187;-82
2022/07/07 10:22:32;;;;;;;5.70;2.40;;;;;;;21.41;49.44;96157.44;5010841;28;20190;-83
2022/07/07 10:24:59;;;;;;;5.00;1.70;;;;;;;21.39;49.46;96154.19;4994550;28;20187;-81
2022/07/07 10:27:26;;;;;;;4.03;2.13;;;;;;;21.14;49.37;96170.56;5011977;28;20176;-83
2022/07/07 10:29:57;;;;;;;7.20;2.00;;;;;;;20.55;51.08;96163.19;4996796;28;20187;-82
2022/07/07 10:32:33;;;;;;;6.78;2.10;;;;;;;20.21;52.82;96160.50;5012133;28;20227;-82
2022/07/07 10:35:04;;;;;;;2.90;1.73;;;;;;;20.18;52.86;96171.44;5012106;28;20194;-83
2022/07/07 10:38:00;;;;;;;2.35;1.88;;;;;;;20.08;53.44;96177.06;5012171;28;20203;-82
2022/07/07 10:40:27;;;;;;;2.92;1.55;;;;;;;20.23;52.66;96179.56;5015053;28;20242;-85
2022/07/07 10:42:58;;;;;;;5.80;2.40;;;;;;;20.19;52.10;96180.97;4996778;28;20565;-83
2022/07/07 10:45:25;;;;;;;2.85;2.22;;;;;;;20.07;52.75;96181.50;5013072;28;20186;-82
2022/07/07 10:47:50;;;;;;;2.35;1.98;;;;;;;20.54;51.40;96174.75;5012086;28;20194;-83
2022/07/07 10:50:26;;;;;;;4.90;2.08;;;;;;;20.87;51.08;96176.75;5011989;28;20269;-83
2022/07/07 10:52:52;;;;;;;3.30;2.20;;;;;;;21.05;50.41;96178.84;5011517;28;20455;-83
2022/07/07 10:55:17;;;;;;;4.43;2.25;;;;;;;21.32;49.19;96180.59;4994671;28;20178;-84
2022/07/07 10:57:44;;;;;;;4.03;2.28;;;;;;;21.90;48.56;96180.06;5012852;28;20207;-83
2022/07/07 11:00:18;;;;;;;3.35;2.50;;;;;;;21.66;48.32;96179.66;5014477;28;20179;-82
2022/07/07 11:02:57;;;;;;;4.30;2.25;;;;;;;21.32;48.76;96193.81;5027488;28;20178;-84
2022/07/07 11:05:28;;;;;;;3.38;2.40;;;;;;;21.21;48.99;96200.44;5011931;28;20217;-83
2022/07/07 11:07:56;;;;;;;6.65;2.25;;;;;;;20.47;50.85;96184.44;4994223;28;20171;-83
2022/07/07 11:10:23;;;;;;;6.55;2.50;;;;;;;20.68;50.60;96185.38;5011665;28;20676;-83
2022/07/07 11:12:52;;;;;;;2.88;2.05;;;;;;;20.75;51.35;96186.22;5011162;28;20176;-82
2022/07/07 11:15:32;;;;;;;5.03;2.25;;;;;;;20.81;50.83;96188.09;4994294;28;20269;-80
2022/07/07 11:17:59;;;;;;;5.22;2.95;;;;;;;20.65;50.52;96190.03;5010692;28;20226;-81
2022/07/07 11:20:26;;;;;;;5.72;2.80;;;;;;;20.49;51.25;96177.13;5011381;28;20547;-81
2022/07/07 11:23:10;;;;;;;4.68;2.47;;;;;;;20.89;50.18;96186.09;5012669;28;20274;-77
2022/07/07 11:25:37;;;;;;;6.65;2.55;;;;;;;21.27;49.63;96192.75;4994443;28;20182;-79
2022/07/07 11:28:07;;;;;;;6.90;2.95;;;;;;;21.05;50.11;96182.31;5010414;28;20191;-80
2022/07/07 11:30:33;;;;;;;5.55;2.92;;;;;;;20.82;49.77;96174.69;5007511;28;20568;-80
2022/07/07 11:32:59;;;;;;;3.53;2.45;;;;;;;20.71;50.99;96179.72;4992632;28;20183;-80
2022/07/07 11:35:29;;;;;;;4.82;2.63;;;;;;;21.18;49.59;96184.16;5007511;28;20270;-79